createdAt,value
2023-01-11T00:00:23.434Z,1005.66
2023-01-11T00:01:26.341Z,1005.63
2023-01-11T00:02:29.568Z,1005.68
2023-01-11T00:04:04.812Z,1005.64
2023-01-11T00:05:08.210Z,1005.58
2023-01-11T00:06:11.612Z,1005.61
2023-01-11T00:07:47.279Z,1005.60
2023-01-11T00:08:50.705Z,1005.69
2023-01-11T00:09:54.013Z,1005.64
2023-01-11T00:11:29.125Z,1005.64
2023-01-11T00:12:32.243Z,1005.66
2023-01-11T00:13:35.369Z,1005.57
2023-01-11T00:15:10.817Z,1005.57
2023-01-11T00:16:14.230Z,1005.50
2023-01-11T00:17:17.602Z,1005.52
2023-01-11T00:18:52.935Z,1005.50
2023-01-11T00:19:56.013Z,1005.55
2023-01-11T00:20:59.204Z,1005.52
2023-01-11T00:22:34.703Z,1005.51
2023-01-11T00:23:38.009Z,1005.48
2023-01-11T00:24:41.236Z,1005.49
2023-01-11T00:26:16.402Z,1005.49
2023-01-11T00:27:19.628Z,1005.49
2023-01-11T00:28:22.954Z,1005.43
2023-01-11T00:29:58.325Z,1005.42
2023-01-11T00:31:01.737Z,1005.48
2023-01-11T00:32:05.458Z,1005.43
2023-01-11T00:33:40.694Z,1005.41
2023-01-11T00:34:43.911Z,1005.40
2023-01-11T00:35:47.311Z,1005.42
2023-01-11T00:37:22.513Z,1005.49
2023-01-11T00:38:25.766Z,1005.38
2023-01-11T00:39:28.955Z,1005.37
2023-01-11T00:41:04.477Z,1005.40
2023-01-11T00:42:07.814Z,1005.42
2023-01-11T00:43:10.878Z,1005.33
2023-01-11T00:44:46.185Z,1005.29
2023-01-11T00:45:49.451Z,1005.31
2023-01-11T00:46:52.745Z,1005.34
2023-01-11T00:48:27.836Z,1005.36
2023-01-11T00:49:31.053Z,1005.44
2023-01-11T00:50:34.097Z,1005.39
2023-01-11T00:52:09.884Z,1005.39
2023-01-11T00:53:13.495Z,1005.34
2023-01-11T00:54:16.706Z,1005.38
2023-01-11T00:55:51.878Z,1005.29
2023-01-11T00:56:54.960Z,1005.21
2023-01-11T00:57:58.104Z,1005.28
2023-01-11T00:59:33.519Z,1005.23
2023-01-11T01:00:24.050Z,1005.27
2023-01-11T01:01:27.675Z,1005.28
2023-01-11T01:02:31.216Z,1005.22
2023-01-11T01:04:06.746Z,1005.26
2023-01-11T01:05:09.926Z,1005.24
2023-01-11T01:06:13.020Z,1005.22
2023-01-11T01:07:48.657Z,1005.28
2023-01-11T01:08:51.637Z,1005.19
2023-01-11T01:09:54.581Z,1005.22
2023-01-11T01:11:29.898Z,1005.14
2023-01-11T01:12:32.848Z,1005.12
2023-01-11T01:13:36.185Z,1005.13
2023-01-11T01:15:11.255Z,1005.10
2023-01-11T01:16:14.653Z,1005.11
2023-01-11T01:17:18.025Z,1005.09
2023-01-11T01:18:53.082Z,1005.08
2023-01-11T01:19:56.492Z,1005.08
2023-01-11T01:20:59.620Z,1005.11
2023-01-11T01:22:34.780Z,1005.10
2023-01-11T01:23:37.922Z,1005.25
2023-01-11T01:24:40.989Z,1004.98
2023-01-11T01:26:16.033Z,1005.02
2023-01-11T01:27:19.276Z,1005.04
2023-01-11T01:28:22.600Z,1005.04
2023-01-11T01:29:57.799Z,1005.04
2023-01-11T01:31:01.235Z,1005.04
2023-01-11T01:32:04.762Z,1005.04
2023-01-11T01:33:39.999Z,1005.13
2023-01-11T01:34:43.216Z,1005.20
2023-01-11T01:35:46.192Z,1005.20
2023-01-11T01:37:21.268Z,1005.07
2023-01-11T01:38:24.386Z,1005.04
2023-01-11T01:39:27.538Z,1005.00
2023-01-11T01:41:02.903Z,1005.03
2023-01-11T01:42:06.312Z,1005.04
2023-01-11T01:43:09.370Z,1005.04
2023-01-11T01:44:45.255Z,1005.07
2023-01-11T01:45:48.858Z,1005.07
2023-01-11T01:46:52.452Z,1005.07
2023-01-11T01:48:27.647Z,1005.10
2023-01-11T01:49:30.990Z,1005.10
2023-01-11T01:50:34.337Z,1005.07
2023-01-11T01:52:09.789Z,1005.11
2023-01-11T01:53:13.044Z,1005.11
2023-01-11T01:54:16.165Z,1005.11
2023-01-11T01:55:51.443Z,1005.07
2023-01-11T01:56:54.736Z,1005.10
2023-01-11T01:57:58.119Z,1005.10
2023-01-11T01:59:33.624Z,1005.10
2023-01-11T02:00:23.523Z,1005.10
2023-01-11T02:01:27.174Z,1005.02
2023-01-11T02:02:30.792Z,1005.02
2023-01-11T02:04:06.473Z,1005.02
2023-01-11T02:05:09.705Z,1005.02
2023-01-11T02:06:12.816Z,1005.02
2023-01-11T02:07:48.417Z,1005.02
2023-01-11T02:08:51.778Z,1005.02
2023-01-11T02:09:54.892Z,1004.94
2023-01-11T02:11:30.220Z,1005.00
2023-01-11T02:12:36.027Z,1005.00
2023-01-11T02:13:39.200Z,1005.00
2023-01-11T02:15:14.370Z,1005.03
2023-01-11T02:16:18.033Z,1005.03
2023-01-11T02:17:21.412Z,1005.03
2023-01-11T02:18:56.521Z,1005.03
2023-01-11T02:19:59.887Z,1005.03
2023-01-11T02:21:03.093Z,1004.90
2023-01-11T02:22:38.364Z,1004.90
2023-01-11T02:23:41.598Z,1004.90
2023-01-11T02:24:44.831Z,1004.90
2023-01-11T02:26:20.032Z,1004.87
2023-01-11T02:27:23.125Z,1004.87
2023-01-11T02:28:26.510Z,1004.87
2023-01-11T02:30:02.083Z,1004.87
2023-01-11T02:31:05.290Z,1004.87
2023-01-11T02:32:08.620Z,1004.87
2023-01-11T02:33:43.789Z,1004.85
2023-01-11T02:34:46.938Z,1004.86
2023-01-11T02:35:50.059Z,1004.86
2023-01-11T02:37:25.116Z,1004.86
2023-01-11T02:38:28.273Z,1004.86
2023-01-11T02:39:31.418Z,1004.86
2023-01-11T02:41:06.632Z,1004.81
2023-01-11T02:42:09.925Z,1004.81
2023-01-11T02:43:13.143Z,1004.81
2023-01-11T02:44:48.099Z,1004.81
2023-01-11T02:45:51.076Z,1004.81
2023-01-11T02:46:54.423Z,1004.81
2023-01-11T02:48:29.655Z,1004.83
2023-01-11T02:49:32.909Z,1004.85
2023-01-11T02:50:36.249Z,1004.85
2023-01-11T02:52:12.098Z,1004.85
2023-01-11T02:53:15.291Z,1004.85
2023-01-11T02:54:18.518Z,1004.85
2023-01-11T02:55:54.195Z,1004.85
2023-01-11T02:56:57.552Z,1004.85
2023-01-11T02:58:00.578Z,1004.85
2023-01-11T02:59:35.943Z,1004.85
2023-01-11T03:00:23.071Z,1004.85
2023-01-11T03:01:26.440Z,1004.85
2023-01-11T03:02:30.081Z,1004.85
2023-01-11T03:04:05.916Z,1004.85
2023-01-11T03:05:09.427Z,1004.79
2023-01-11T03:06:12.764Z,1004.79
2023-01-11T03:07:48.816Z,1004.79
2023-01-11T03:08:51.947Z,1004.79
2023-01-11T03:09:55.230Z,1004.79
2023-01-11T03:11:30.599Z,1004.79
2023-01-11T03:12:34.045Z,1004.79
2023-01-11T03:13:37.520Z,1004.79
2023-01-11T03:15:12.734Z,1004.79
2023-01-11T03:16:16.926Z,1004.79
2023-01-11T03:17:20.368Z,1004.79
2023-01-11T03:18:55.542Z,1004.79
2023-01-11T03:19:59.082Z,1004.79
2023-01-11T03:21:02.797Z,1004.85
2023-01-11T03:22:38.428Z,1004.85
2023-01-11T03:23:41.771Z,1004.85
2023-01-11T03:24:45.238Z,1004.85
2023-01-11T03:26:20.952Z,1004.85
2023-01-11T03:27:27.002Z,1004.85
2023-01-11T03:28:30.379Z,1004.85
2023-01-11T03:30:06.075Z,1004.85
2023-01-11T03:31:09.603Z,1004.85
2023-01-11T03:32:13.097Z,1004.85
2023-01-11T03:33:48.434Z,1004.86
2023-01-11T03:34:51.601Z,1004.86
2023-01-11T03:35:55.195Z,1004.86
2023-01-11T03:37:30.625Z,1004.86
2023-01-11T03:38:34.020Z,1004.86
2023-01-11T03:39:37.415Z,1004.81
2023-01-11T03:41:12.456Z,1004.81
2023-01-11T03:42:15.670Z,1004.81
2023-01-11T03:43:18.850Z,1004.81
2023-01-11T03:44:54.551Z,1004.81
2023-01-11T03:45:57.773Z,1004.81
2023-01-11T03:47:01.316Z,1004.81
2023-01-11T03:48:36.793Z,1004.81
2023-01-11T03:49:40.180Z,1004.81
2023-01-11T03:50:43.431Z,1004.81
2023-01-11T03:52:18.602Z,1005.01
2023-01-11T03:53:21.936Z,1005.01
2023-01-11T03:54:25.209Z,1005.01
2023-01-11T03:56:00.483Z,1005.01
2023-01-11T03:57:03.614Z,1005.01
2023-01-11T03:58:07.178Z,1005.01
2023-01-11T03:59:42.502Z,1005.01
2023-01-11T04:00:23.916Z,1005.01
2023-01-11T04:01:27.767Z,1005.01
2023-01-11T04:02:31.156Z,1005.01
2023-01-11T04:04:06.695Z,1005.01
2023-01-11T04:05:09.902Z,1005.21
2023-01-11T04:06:13.200Z,1005.21
2023-01-11T04:07:48.707Z,1005.21
2023-01-11T04:08:52.285Z,1005.21
2023-01-11T04:09:55.545Z,1005.21
2023-01-11T04:11:30.972Z,1005.21
2023-01-11T04:12:34.261Z,1005.21
2023-01-11T04:13:37.985Z,1005.21
2023-01-11T04:15:13.102Z,1005.21
2023-01-11T04:16:16.443Z,1005.21
2023-01-11T04:17:20.033Z,1005.21
2023-01-11T04:18:55.301Z,1005.14
2023-01-11T04:19:58.963Z,1005.14
2023-01-11T04:21:02.344Z,1005.14
2023-01-11T04:22:37.896Z,1005.14
2023-01-11T04:23:41.325Z,1005.14
2023-01-11T04:24:44.531Z,1005.14
2023-01-11T04:26:19.684Z,1005.14
2023-01-11T04:27:22.716Z,1005.28
2023-01-11T04:28:26.191Z,1005.31
2023-01-11T04:30:01.508Z,1005.31
2023-01-11T04:31:04.653Z,1005.31
2023-01-11T04:32:08.073Z,1005.31
2023-01-11T04:33:43.149Z,1005.31
2023-01-11T04:34:46.592Z,1005.31
2023-01-11T04:35:50.103Z,1005.31
2023-01-11T04:37:25.202Z,1005.31
2023-01-11T04:38:28.405Z,1005.31
2023-01-11T04:39:31.511Z,1005.43
2023-01-11T04:41:06.809Z,1005.43
2023-01-11T04:42:10.275Z,1005.43
2023-01-11T04:43:13.993Z,1005.43
2023-01-11T04:44:49.938Z,1005.43
2023-01-11T04:45:53.185Z,1005.43
2023-01-11T04:46:56.642Z,1005.43
2023-01-11T04:48:31.870Z,1005.43
2023-01-11T04:49:35.051Z,1005.43
2023-01-11T04:50:38.481Z,1005.43
2023-01-11T04:52:14.146Z,1005.45
2023-01-11T04:53:17.577Z,1005.45
2023-01-11T04:54:20.904Z,1005.45
2023-01-11T04:55:56.035Z,1005.45
2023-01-11T04:56:59.540Z,1005.45
2023-01-11T04:58:02.863Z,1005.45
2023-01-11T04:59:38.128Z,1005.45
2023-01-11T05:00:23.669Z,1005.45
2023-01-11T05:01:27.440Z,1005.45
2023-01-11T05:02:30.538Z,1005.45
2023-01-11T05:04:06.387Z,1005.45
2023-01-11T05:05:52.994Z,1005.45
2023-01-11T05:06:56.604Z,1005.45
2023-01-11T05:08:00.203Z,1005.45
2023-01-11T05:09:35.574Z,1005.45
2023-01-11T05:10:38.962Z,1005.62
2023-01-11T05:11:41.892Z,1005.62
2023-01-11T05:13:16.960Z,1005.62
2023-01-11T05:14:20.140Z,1005.62
2023-01-11T05:15:23.655Z,1005.62
2023-01-11T05:16:59.182Z,1005.62
2023-01-11T05:18:02.273Z,1005.62
2023-01-11T05:19:05.571Z,1005.62
2023-01-11T05:20:40.952Z,1005.65
2023-01-11T05:21:44.075Z,1005.65
2023-01-11T05:22:47.458Z,1005.65
2023-01-11T05:24:22.924Z,1005.65
2023-01-11T05:25:26.091Z,1005.65
2023-01-11T05:26:29.463Z,1005.65
2023-01-11T05:28:04.564Z,1005.65
2023-01-11T05:29:07.799Z,1005.65
2023-01-11T05:30:11.188Z,1005.66
2023-01-11T05:31:46.576Z,1005.66
2023-01-11T05:32:50.097Z,1005.66
2023-01-11T05:33:53.099Z,1005.66
2023-01-11T05:35:28.151Z,1005.66
2023-01-11T05:36:31.461Z,1005.66
2023-01-11T05:37:34.667Z,1005.66
2023-01-11T05:39:09.831Z,1005.70
2023-01-11T05:40:12.980Z,1005.70
2023-01-11T05:41:16.176Z,1005.70
2023-01-11T05:42:51.512Z,1005.70
2023-01-11T05:43:54.849Z,1005.70
2023-01-11T05:44:58.320Z,1005.70
2023-01-11T05:46:33.728Z,1005.70
2023-01-11T05:47:37.103Z,1005.70
2023-01-11T05:48:39.954Z,1005.70
2023-01-11T05:50:15.241Z,1005.70
2023-01-11T05:51:18.303Z,1005.70
2023-01-11T05:52:21.245Z,1005.70
2023-01-11T05:53:56.554Z,1005.70
2023-01-11T05:54:59.644Z,1005.70
2023-01-11T05:56:03.148Z,1005.70
2023-01-11T05:57:38.328Z,1005.70
2023-01-11T05:58:41.602Z,1005.70
2023-01-11T05:59:44.991Z,1005.70
2023-01-11T06:00:23.352Z,1005.70
2023-01-11T06:01:26.651Z,1005.70
2023-01-11T06:02:30.375Z,1005.70
2023-01-11T06:04:06.658Z,1005.70
2023-01-11T06:05:09.934Z,1005.70
2023-01-11T06:06:13.304Z,1005.70
2023-01-11T06:07:49.307Z,1005.70
2023-01-11T06:08:52.554Z,1005.70
2023-01-11T06:09:55.995Z,1005.70
2023-01-11T06:11:31.425Z,1005.70
2023-01-11T06:12:34.755Z,1005.70
2023-01-11T06:13:37.938Z,1005.70
2023-01-11T06:15:12.939Z,1005.70
2023-01-11T06:16:16.271Z,1005.70
2023-01-11T06:17:19.712Z,1005.70
2023-01-11T06:18:54.767Z,1005.70
2023-01-11T06:19:57.935Z,1005.70
2023-01-11T06:21:01.268Z,1005.70
2023-01-11T06:22:36.427Z,1005.99
2023-01-11T06:23:39.572Z,1005.99
2023-01-11T06:24:43.156Z,1006.00
2023-01-11T06:26:18.688Z,1006.02
2023-01-11T06:27:22.055Z,1006.01
2023-01-11T06:28:25.356Z,1006.01
2023-01-11T06:30:00.612Z,1006.07
2023-01-11T06:31:04.024Z,1006.07
2023-01-11T06:32:10.102Z,1006.07
2023-01-11T06:33:45.484Z,1006.07
2023-01-11T06:34:48.961Z,1006.07
2023-01-11T06:35:52.335Z,1006.07
2023-01-11T06:37:27.885Z,1006.07
2023-01-11T06:38:31.081Z,1006.07
2023-01-11T06:39:34.441Z,1006.07
2023-01-11T06:41:09.631Z,1006.07
2023-01-11T06:42:12.991Z,1006.07
2023-01-11T06:43:16.398Z,1006.33
2023-01-11T06:44:51.535Z,1006.33
2023-01-11T06:45:54.707Z,1006.33
2023-01-11T06:46:58.152Z,1006.33
2023-01-11T06:48:33.406Z,1006.33
2023-01-11T06:49:36.805Z,1006.33
2023-01-11T06:50:40.161Z,1006.33
2023-01-11T06:52:15.610Z,1006.33
2023-01-11T06:53:18.948Z,1006.33
2023-01-11T06:54:25.882Z,1006.33
2023-01-11T06:56:01.149Z,1006.33
2023-01-11T06:57:04.663Z,1006.33
2023-01-11T06:58:07.907Z,1006.33
2023-01-11T06:59:46.915Z,1006.44
2023-01-11T07:00:24.166Z,1006.44
2023-01-11T07:01:28.334Z,1006.46
2023-01-11T07:02:32.337Z,1006.46
2023-01-11T07:04:07.608Z,1006.46
2023-01-11T07:05:11.189Z,1006.46
2023-01-11T07:06:17.258Z,1006.46
2023-01-11T07:07:52.496Z,1006.46
2023-01-11T07:08:55.858Z,1006.46
2023-01-11T07:09:59.177Z,1006.46
2023-01-11T07:11:34.393Z,1006.56
2023-01-11T07:12:37.264Z,1006.57
2023-01-11T07:13:40.197Z,1006.64
2023-01-11T07:15:15.368Z,1006.64
2023-01-11T07:16:18.683Z,1006.69
2023-01-11T07:17:22.277Z,1006.69
2023-01-11T07:18:58.094Z,1006.69
2023-01-11T07:20:01.341Z,1006.69
2023-01-11T07:21:04.570Z,1006.73
2023-01-11T07:22:39.800Z,1006.70
2023-01-11T07:23:42.954Z,1006.69
2023-01-11T07:24:48.431Z,1006.73
2023-01-11T07:26:23.847Z,1006.80
2023-01-11T07:27:27.172Z,1006.80
2023-01-11T07:28:30.235Z,1006.80
2023-01-11T07:30:05.539Z,1006.80
2023-01-11T07:31:11.228Z,1006.80
2023-01-11T07:32:14.545Z,1006.80
2023-01-11T07:33:50.073Z,1006.97
2023-01-11T07:34:53.373Z,1006.97
2023-01-11T07:35:56.498Z,1006.97
2023-01-11T07:37:40.522Z,1006.97
2023-01-11T07:38:43.956Z,1006.97
2023-01-11T07:39:55.009Z,1006.97
2023-01-11T07:41:30.417Z,1006.97
2023-01-11T07:42:33.823Z,1006.97
2023-01-11T07:43:36.830Z,1007.28
2023-01-11T07:45:12.127Z,1007.28
2023-01-11T07:46:38.317Z,1007.28
2023-01-11T07:47:41.989Z,1007.37
2023-01-11T07:49:17.500Z,1007.37
2023-01-11T07:50:20.767Z,1007.37
2023-01-11T07:51:24.324Z,1007.41
2023-01-11T07:52:59.394Z,1007.42
2023-01-11T07:54:02.685Z,1007.42
2023-01-11T07:55:06.018Z,1007.42
2023-01-11T07:56:41.142Z,1007.42
2023-01-11T07:57:44.462Z,1007.37
2023-01-11T07:58:47.651Z,1007.37
2023-01-11T08:00:23.711Z,1007.37
2023-01-11T08:01:28.208Z,1007.51
2023-01-11T08:02:32.118Z,1007.47
2023-01-11T08:04:08.616Z,1007.47
2023-01-11T08:05:14.463Z,1007.44
2023-01-11T08:06:17.778Z,1007.41
2023-01-11T08:07:52.960Z,1007.47
2023-01-11T08:08:56.321Z,1007.45
2023-01-11T08:10:00.022Z,1007.53
2023-01-11T08:11:39.069Z,1007.53
2023-01-11T08:12:42.452Z,1007.65
2023-01-11T08:13:48.779Z,1007.70
2023-01-11T08:15:24.195Z,1007.71
2023-01-11T08:16:28.023Z,1007.78
2023-01-11T08:17:31.170Z,1007.78
2023-01-11T08:19:06.349Z,1007.80
2023-01-11T08:20:09.513Z,1007.80
2023-01-11T08:21:14.146Z,1007.84
2023-01-11T08:22:49.971Z,1007.85
2023-01-11T08:23:53.109Z,1007.89
2023-01-11T08:24:56.278Z,1007.89
2023-01-11T08:26:31.533Z,1007.87
2023-01-11T08:27:35.021Z,1007.86
2023-01-11T08:28:38.615Z,1007.94
2023-01-11T08:30:13.545Z,1007.91
2023-01-11T08:31:16.953Z,1007.97
2023-01-11T08:32:20.364Z,1007.94
2023-01-11T08:33:55.333Z,1007.93
2023-01-11T08:34:58.663Z,1007.99
2023-01-11T08:36:01.779Z,1007.97
2023-01-11T08:37:37.009Z,1008.04
2023-01-11T08:38:40.177Z,1008.05
2023-01-11T08:39:43.498Z,1008.10
2023-01-11T08:41:22.419Z,1008.15
2023-01-11T08:42:25.416Z,1008.09
2023-01-11T08:43:28.883Z,1008.12
2023-01-11T08:45:20.680Z,1008.11
2023-01-11T08:46:24.166Z,1008.15
2023-01-11T08:47:27.643Z,1008.18
2023-01-11T08:49:02.874Z,1008.25
2023-01-11T08:50:06.820Z,1008.24
2023-01-11T08:51:10.518Z,1008.31
2023-01-11T08:52:45.634Z,1008.28
2023-01-11T08:53:49.393Z,1008.32
2023-01-11T08:54:52.519Z,1008.32
2023-01-11T08:56:27.855Z,1008.33
2023-01-11T08:57:31.304Z,1008.33
2023-01-11T08:58:35.443Z,1008.41
2023-01-11T09:00:23.152Z,1008.41
2023-01-11T09:01:26.306Z,1008.42
2023-01-11T09:02:29.883Z,1008.44
2023-01-11T09:04:19.220Z,1008.46
2023-01-11T09:05:29.624Z,1008.50
2023-01-11T09:06:32.943Z,1008.47
2023-01-11T09:08:08.218Z,1008.54
2023-01-11T09:09:11.275Z,1008.57
2023-01-11T09:10:14.276Z,1008.58
2023-01-11T09:11:49.740Z,1008.64
2023-01-11T09:12:52.630Z,1008.63
2023-01-11T09:13:55.674Z,1008.60
2023-01-11T09:15:31.107Z,1008.59
2023-01-11T09:16:34.650Z,1008.56
2023-01-11T09:17:37.872Z,1008.58
2023-01-11T09:19:12.794Z,1008.55
2023-01-11T09:20:16.230Z,1008.55
2023-01-11T09:21:19.486Z,1008.59
2023-01-11T09:22:57.588Z,1008.61
2023-01-11T09:24:00.664Z,1008.65
2023-01-11T09:25:03.815Z,1008.66
2023-01-11T09:26:39.275Z,1008.65
2023-01-11T09:27:42.599Z,1008.61
2023-01-11T09:28:45.693Z,1008.60
2023-01-11T09:30:23.875Z,1008.65
2023-01-11T09:31:27.523Z,1008.66
2023-01-11T09:32:31.172Z,1008.65
2023-01-11T09:34:06.327Z,1008.72
2023-01-11T09:35:09.231Z,1008.64
2023-01-11T09:36:12.439Z,1008.71
2023-01-11T09:37:47.631Z,1008.72
2023-01-11T09:38:50.823Z,1008.70
2023-01-11T09:39:54.032Z,1008.70
2023-01-11T09:41:32.230Z,1008.75
2023-01-11T09:42:35.746Z,1008.74
2023-01-11T09:43:38.803Z,1008.69
2023-01-11T09:45:14.818Z,1008.70
2023-01-11T09:46:20.174Z,1008.79
2023-01-11T09:47:23.851Z,1008.77
2023-01-11T09:48:59.784Z,1008.83
2023-01-11T09:50:02.854Z,1008.85
2023-01-11T09:51:06.571Z,1008.85
2023-01-11T09:52:42.573Z,1008.86
2023-01-11T09:53:45.794Z,1008.91
2023-01-11T09:54:49.320Z,1008.89
2023-01-11T09:56:24.618Z,1008.86
2023-01-11T09:57:27.934Z,1008.93
2023-01-11T09:58:31.419Z,1008.91
2023-01-11T10:00:23.973Z,1008.90
2023-01-11T10:01:27.634Z,1008.91
2023-01-11T10:02:30.754Z,1008.93
2023-01-11T10:04:05.830Z,1009.00
2023-01-11T10:05:09.401Z,1008.99
2023-01-11T10:06:12.913Z,1009.01
2023-01-11T10:07:48.282Z,1008.98
2023-01-11T10:20:05.242Z,1009.04
2023-01-11T10:21:10.457Z,1009.05
2023-01-11T10:22:45.811Z,1009.04
2023-01-11T10:23:49.279Z,1009.08
2023-01-11T10:24:53.923Z,1009.07
2023-01-11T10:26:30.250Z,1009.06
2023-01-11T10:27:33.912Z,1009.09
2023-01-11T10:28:37.302Z,1009.03
2023-01-11T10:30:12.456Z,1009.11
2023-01-11T10:31:15.674Z,1009.10
2023-01-11T10:32:18.876Z,1009.17
2023-01-11T10:33:54.216Z,1009.14
2023-01-11T10:34:57.403Z,1009.25
2023-01-11T10:36:00.679Z,1009.25
2023-01-11T10:37:36.233Z,1009.24
2023-01-11T10:38:39.182Z,1009.25
2023-01-11T10:39:42.586Z,1009.24
2023-01-11T10:41:17.841Z,1009.26
2023-01-11T10:42:20.962Z,1009.27
2023-01-11T10:43:24.375Z,1009.23
2023-01-11T10:44:59.663Z,1009.24
2023-01-11T10:46:03.292Z,1009.24
2023-01-11T10:47:06.336Z,1009.27
2023-01-11T10:48:41.419Z,1009.23
2023-01-11T10:49:47.327Z,1009.24
2023-01-11T10:50:52.738Z,1009.29
2023-01-11T10:52:28.155Z,1009.32
2023-01-11T10:53:31.409Z,1009.34
2023-01-11T10:54:34.599Z,1009.33
2023-01-11T10:56:11.749Z,1009.37
2023-01-11T10:57:18.170Z,1009.32
2023-01-11T10:58:22.096Z,1009.28
2023-01-11T10:59:57.295Z,1009.25
2023-01-11T11:00:23.775Z,1009.32
2023-01-11T11:01:27.474Z,1009.29
2023-01-11T11:02:34.182Z,1009.23
2023-01-11T11:04:09.621Z,1009.24
2023-01-11T11:05:13.082Z,1009.34
2023-01-11T11:06:16.140Z,1009.29
2023-01-11T11:07:51.483Z,1009.31
2023-01-11T11:08:54.775Z,1009.34
2023-01-11T11:09:58.211Z,1009.30
2023-01-11T11:11:33.805Z,1009.32
2023-01-11T11:12:37.026Z,1009.35
2023-01-11T11:13:42.503Z,1009.34
2023-01-11T11:15:18.249Z,1009.31
2023-01-11T11:16:21.670Z,1009.26
2023-01-11T11:17:25.356Z,1009.32
2023-01-11T11:19:00.448Z,1009.36
2023-01-11T11:20:03.645Z,1009.35
2023-01-11T11:21:07.335Z,1009.33
2023-01-11T11:22:42.834Z,1009.36
2023-01-11T11:23:46.046Z,1009.39
2023-01-11T11:24:49.286Z,1009.38
2023-01-11T11:26:24.447Z,1009.34
2023-01-11T11:27:28.149Z,1009.34
2023-01-11T11:28:31.020Z,1009.36
2023-01-11T11:30:05.907Z,1009.31
2023-01-11T11:31:09.109Z,1009.31
2023-01-11T11:32:12.357Z,1009.34
2023-01-11T11:33:47.884Z,1009.27
2023-01-11T11:34:50.929Z,1009.24
2023-01-11T11:35:54.106Z,1009.19
2023-01-11T11:37:29.206Z,1009.22
2023-01-11T11:38:32.201Z,1009.26
2023-01-11T11:39:35.452Z,1009.23
2023-01-11T11:41:10.569Z,1009.22
2023-01-11T11:42:13.703Z,1009.19
2023-01-11T11:43:16.816Z,1009.25
2023-01-11T11:44:52.049Z,1009.28
2023-01-11T11:45:55.557Z,1009.28
2023-01-11T11:47:04.744Z,1009.32
2023-01-11T11:48:39.887Z,1009.26
2023-01-11T11:49:43.338Z,1009.33
2023-01-11T11:50:57.002Z,1009.26
2023-01-11T11:52:32.191Z,1009.30
2023-01-11T11:53:35.131Z,1009.30
2023-01-11T11:54:38.396Z,1009.37
2023-01-11T11:56:13.701Z,1009.37
2023-01-11T11:57:16.835Z,1009.40
2023-01-11T11:58:20.546Z,1009.38
2023-01-11T11:59:56.814Z,1009.40
2023-01-11T12:00:23.267Z,1009.40
2023-01-11T12:01:26.463Z,1009.43
2023-01-11T12:02:29.939Z,1009.36
2023-01-11T12:04:05.329Z,1009.34
2023-01-11T12:05:08.714Z,1009.41
2023-01-11T12:06:12.065Z,1009.46
2023-01-11T12:08:01.636Z,1009.42
2023-01-11T12:09:04.700Z,1009.47
2023-01-11T12:10:08.343Z,1009.54
2023-01-11T12:11:43.538Z,1009.56
2023-01-11T12:12:46.645Z,1009.62
2023-01-11T12:13:49.650Z,1009.60
2023-01-11T12:15:24.782Z,1009.61
2023-01-11T12:16:28.129Z,1009.52
2023-01-11T12:17:31.472Z,1009.54
2023-01-11T12:19:07.353Z,1009.57
2023-01-11T12:20:10.530Z,1009.52
2023-01-11T12:21:13.513Z,1009.46
2023-01-11T12:22:48.546Z,1009.50
2023-01-11T12:23:51.718Z,1009.48
2023-01-11T12:24:55.099Z,1009.50
2023-01-11T12:26:30.184Z,1009.52
2023-01-11T12:27:33.956Z,1009.49
2023-01-11T12:28:36.915Z,1009.54
2023-01-11T12:30:12.044Z,1009.52
2023-01-11T12:31:17.945Z,1009.48
2023-01-11T12:32:21.354Z,1009.45
2023-01-11T12:33:56.465Z,1009.46
2023-01-11T12:34:59.768Z,1009.46
2023-01-11T12:36:03.516Z,1009.39
2023-01-11T12:37:38.690Z,1009.38
2023-01-11T12:38:41.754Z,1009.40
2023-01-11T12:39:44.867Z,1009.35
2023-01-11T12:41:20.068Z,1009.38
2023-01-11T12:42:23.441Z,1009.37
2023-01-11T12:43:26.585Z,1009.40
2023-01-11T12:45:02.298Z,1009.42
2023-01-11T12:46:05.657Z,1009.44
2023-01-11T12:47:09.354Z,1009.49
2023-01-11T12:48:47.471Z,1009.44
2023-01-11T12:49:50.676Z,1009.48
2023-01-11T12:50:53.907Z,1009.48
2023-01-11T12:52:33.451Z,1009.57
2023-01-11T12:53:36.778Z,1009.48
2023-01-11T12:54:39.741Z,1009.51
2023-01-11T12:56:14.912Z,1009.47
2023-01-11T12:57:18.076Z,1009.49
2023-01-11T12:58:24.627Z,1009.45
2023-01-11T13:00:00.254Z,1009.51
2023-01-11T13:00:23.918Z,1009.51
2023-01-11T13:01:27.576Z,1009.52
2023-01-11T13:02:31.549Z,1009.61
2023-01-11T13:04:07.311Z,1009.56
2023-01-11T13:05:10.490Z,1009.66
2023-01-11T13:06:13.848Z,1009.64
2023-01-11T13:07:48.857Z,1009.69
2023-01-11T13:08:52.211Z,1009.69
2023-01-11T13:09:55.536Z,1009.59
2023-01-11T13:11:30.720Z,1009.59
2023-01-11T13:12:34.106Z,1009.61
2023-01-11T13:13:37.241Z,1009.58
2023-01-11T13:15:14.477Z,1009.70
2023-01-11T13:16:21.010Z,1009.70
2023-01-11T13:17:24.358Z,1009.68
2023-01-11T13:18:59.487Z,1009.67
2023-01-11T13:20:02.479Z,1009.58
2023-01-11T13:21:13.586Z,1009.62
2023-01-11T13:22:48.703Z,1009.66
2023-01-11T13:23:51.855Z,1009.56
2023-01-11T13:24:55.103Z,1009.70
2023-01-11T13:26:30.219Z,1009.54
2023-01-11T13:27:36.951Z,1009.65
2023-01-11T13:28:40.154Z,1009.65
2023-01-11T13:30:15.269Z,1009.72
2023-01-11T13:31:18.713Z,1009.59
2023-01-11T13:32:22.320Z,1009.64
2023-01-11T13:34:01.027Z,1009.66
2023-01-11T13:35:04.287Z,1009.65
2023-01-11T13:36:18.481Z,1009.63
2023-01-11T13:37:57.382Z,1009.61
2023-01-11T13:39:00.325Z,1009.67
2023-01-11T13:40:03.530Z,1009.61
2023-01-11T13:41:38.646Z,1009.67
2023-01-11T13:42:41.689Z,1009.63
2023-01-11T13:43:44.906Z,1009.63
2023-01-11T13:45:23.279Z,1009.59
2023-01-11T13:46:26.824Z,1009.68
2023-01-11T13:47:30.383Z,1009.63
2023-01-11T13:49:05.680Z,1009.64
2023-01-11T13:50:08.969Z,1009.65
2023-01-11T13:51:12.094Z,1009.67
2023-01-11T13:52:47.152Z,1009.72
2023-01-11T13:53:50.697Z,1009.62
2023-01-11T13:54:54.097Z,1009.72
2023-01-11T13:56:44.148Z,1009.76
2023-01-11T13:57:47.319Z,1009.74
2023-01-11T13:58:50.637Z,1009.82
2023-01-11T14:00:23.715Z,1009.81
2023-01-11T14:01:27.154Z,1009.84
2023-01-11T14:02:30.712Z,1009.85
2023-01-11T14:04:08.490Z,1009.85
2023-01-11T14:05:11.499Z,1009.87
2023-01-11T14:06:14.786Z,1009.78
2023-01-11T14:07:50.091Z,1009.81
2023-01-11T14:08:53.428Z,1009.88
2023-01-11T14:09:56.713Z,1009.81
2023-01-11T14:11:31.934Z,1009.83
2023-01-11T14:12:35.165Z,1009.78
2023-01-11T14:13:38.352Z,1009.78
2023-01-11T14:15:14.003Z,1009.73
2023-01-11T14:16:17.475Z,1009.73
2023-01-11T14:17:20.934Z,1009.73
2023-01-11T14:18:56.172Z,1009.73
2023-01-11T14:19:59.383Z,1009.77
2023-01-11T14:21:04.041Z,1009.73
2023-01-11T14:22:39.231Z,1009.73
2023-01-11T14:23:42.813Z,1009.74
2023-01-11T14:24:46.152Z,1009.72
2023-01-11T14:26:21.638Z,1009.72
2023-01-11T14:27:25.096Z,1009.68
2023-01-11T14:28:28.464Z,1009.70
2023-01-11T14:30:03.812Z,1009.68
2023-01-11T14:31:07.256Z,1009.66
2023-01-11T14:32:10.573Z,1009.58
2023-01-11T14:33:46.031Z,1009.57
2023-01-11T14:34:49.436Z,1009.56
2023-01-11T14:35:52.654Z,1009.60
2023-01-11T14:37:30.432Z,1009.59
2023-01-11T14:38:33.716Z,1009.65
2023-01-11T14:39:36.811Z,1009.62
2023-01-11T14:41:11.925Z,1009.59
2023-01-11T14:42:29.301Z,1009.56
2023-01-11T14:43:33.799Z,1009.65
2023-01-11T14:45:09.643Z,1009.61
2023-01-11T14:46:13.068Z,1009.70
2023-01-11T14:47:16.380Z,1009.64
2023-01-11T14:48:51.563Z,1009.70
2023-01-11T14:49:57.208Z,1009.73
2023-01-11T14:51:00.665Z,1009.78
2023-01-11T14:52:51.036Z,1009.79
2023-01-11T14:53:54.145Z,1009.72
2023-01-11T14:54:57.062Z,1009.76
2023-01-11T14:56:32.212Z,1009.73
2023-01-11T14:57:35.416Z,1009.73
2023-01-11T14:58:38.705Z,1009.75
2023-01-11T15:00:23.255Z,1009.82
2023-01-11T15:01:26.669Z,1009.76
2023-01-11T15:02:30.366Z,1009.74
2023-01-11T15:04:05.544Z,1009.80
2023-01-11T15:05:09.505Z,1009.79